Time;durP1;ratioP1;P1;durP2;ratioP2;P2;SDS_P1;SDS_P2;PMS_P1;PMS_P2;Temp;Humidity;BMP_temperature;BMP_pressure;BME280_temperature;BME280_humidity;BME280_pressure;Samples;Min_cycle;Max_cycle;Signal;HPM_P1;HPM_P2
2022/05/02 00:02:11;;;;;;;;;;;9.60;99.40;;;;;;5020077;28;19924;-78
2022/05/02 00:04:37;;;;;;;;;;;9.40;99.20;;;;;;5021599;28;19913;-79
2022/05/02 00:07:03;;;;;;;;;;;9.40;99.30;;;;;;5020484;28;19928;-79
2022/05/02 00:09:28;;;;;;;;;;;9.30;99.30;;;;;;5022378;28;19912;-78
2022/05/02 00:11:54;;;;;;;;;;;9.30;99.90;;;;;;5015128;28;20587;-66
2022/05/02 00:14:19;;;;;;;;;;;9.30;99.90;;;;;;5014099;28;20055;-66
2022/05/02 00:16:45;;;;;;;;;;;9.40;99.90;;;;;;5018031;28;19925;-67
2022/05/02 00:19:11;;;;;;;;;;;9.30;99.90;;;;;;5012894;28;19920;-67
2022/05/02 00:21:36;;;;;;;;;;;9.30;99.90;;;;;;5018432;28;19913;-67
2022/05/02 00:24:02;;;;;;;;;;;9.20;99.80;;;;;;5018759;28;19956;-67
2022/05/02 00:26:27;;;;;;;;;;;9.20;99.90;;;;;;5002496;28;19916;-67
2022/05/02 00:28:53;;;;;;;;;;;9.30;99.90;;;;;;5017529;28;20443;-67
2022/05/02 00:31:18;;;;;;;;;;;9.30;99.90;;;;;;5022930;28;19921;-66
2022/05/02 00:33:44;;;;;;;;;;;9.30;99.90;;;;;;5016440;28;19944;-66
2022/05/02 00:36:09;;;;;;;;;;;9.40;99.90;;;;;;5014172;28;20313;-66
2022/05/02 00:38:35;;;;;;;;;;;9.30;99.50;;;;;;5013753;28;19963;-67
2022/05/02 00:41:00;;;;;;;;;;;9.20;99.60;;;;;;5024279;28;19920;-67
2022/05/02 00:43:26;;;;;;;;;;;9.10;99.60;;;;;;5018750;28;19956;-67
2022/05/02 00:45:51;;;;;;;;;;;9.10;99.80;;;;;;5019122;28;19909;-67
2022/05/02 00:48:17;;;;;;;;;;;9.10;99.90;;;;;;5015911;28;20440;-66
2022/05/02 00:50:44;;;;;;;;;;;9.10;99.90;;;;;;5022984;28;19916;-67
2022/05/02 00:53:13;;;;;;;;;;;9.20;99.90;;;;;;5021371;28;19921;-67
2022/05/02 00:55:39;;;;;;;;;;;9.20;99.90;;;;;;5013426;28;20331;-67
2022/05/02 00:58:05;;;;;;;;;;;9.10;99.70;;;;;;5022124;28;19968;-66
2022/05/02 01:00:33;;;;;;;;;;;9.10;99.90;;;;;;5018275;28;19914;-67
2022/05/02 01:02:59;;;;;;;;;;;9.10;99.90;;;;;;5013826;28;20648;-66
2022/05/02 01:05:25;;;;;;;;;;;9.00;99.90;;;;;;5017639;28;19947;-66
2022/05/02 01:07:50;;;;;;;;;;;8.90;99.90;;;;;;5013247;28;19953;-66
2022/05/02 01:10:17;;;;;;;;;;;8.90;99.90;;;;;;5016943;28;19917;-66
2022/05/02 01:12:43;;;;;;;;;;;9.00;99.90;;;;;;5016237;28;19995;-66
2022/05/02 01:15:08;;;;;;;;;;;8.90;99.90;;;;;;5016726;28;19924;-66
2022/05/02 01:17:34;;;;;;;;;;;8.90;99.90;;;;;;5002896;28;20359;-66
2022/05/02 01:19:59;;;;;;;;;;;9.00;99.90;;;;;;5014140;28;20583;-66
2022/05/02 01:22:25;;;;;;;;;;;9.00;99.90;;;;;;5009824;28;19979;-66
2022/05/02 01:24:51;;;;;;;;;;;9.00;99.90;;;;;;5016529;28;20012;-67
2022/05/02 01:27:16;;;;;;;;;;;9.00;99.90;;;;;;5019149;28;20383;-66
2022/05/02 01:29:42;;;;;;;;;;;9.00;99.90;;;;;;5018005;28;19955;-67
2022/05/02 01:32:09;;;;;;;;;;;9.00;99.90;;;;;;5015576;28;19976;-67
2022/05/02 01:34:35;;;;;;;;;;;9.00;99.90;;;;;;5019381;28;20812;-67
2022/05/02 01:37:01;;;;;;;;;;;9.00;99.90;;;;;;5019666;28;19913;-67
2022/05/02 01:39:28;;;;;;;;;;;9.00;99.90;;;;;;5021912;28;19920;-67
2022/05/02 01:41:54;;;;;;;;;;;9.00;99.90;;;;;;5016702;28;20304;-67
2022/05/02 01:44:19;;;;;;;;;;;8.90;99.90;;;;;;5001122;28;20016;-67
2022/05/02 01:46:45;;;;;;;;;;;8.90;99.90;;;;;;5016054;28;19993;-67
2022/05/02 01:49:10;;;;;;;;;;;8.70;99.90;;;;;;5015107;28;19924;-67
2022/05/02 01:51:36;;;;;;;;;;;8.70;99.90;;;;;;5017350;28;20047;-67
2022/05/02 01:54:01;;;;;;;;;;;8.80;99.90;;;;;;5015190;28;19921;-67
2022/05/02 01:56:27;;;;;;;;;;;8.90;99.90;;;;;;4996989;28;20617;-67
2022/05/02 01:58:52;;;;;;;;;;;8.90;99.90;;;;;;5016704;28;20386;-66
2022/05/02 02:01:18;;;;;;;;;;;8.80;99.90;;;;;;5016549;28;19928;-67
2022/05/02 02:03:44;;;;;;;;;;;8.80;99.90;;;;;;5004319;28;19913;-66
2022/05/02 02:06:10;;;;;;;;;;;8.70;99.90;;;;;;5016508;28;19913;-67
2022/05/02 02:08:36;;;;;;;;;;;8.60;99.90;;;;;;5017831;28;19913;-66
2022/05/02 02:11:03;;;;;;;;;;;8.60;99.90;;;;;;5013597;28;19913;-66
2022/05/02 02:13:30;;;;;;;;;;;8.60;99.90;;;;;;5017421;28;20343;-66
2022/05/02 02:15:55;;;;;;;;;;;8.50;99.90;;;;;;5011056;28;19924;-66
2022/05/02 02:18:21;;;;;;;;;;;8.60;99.90;;;;;;5014656;28;19923;-77
2022/05/02 02:20:48;;;;;;;;;;;8.60;99.90;;;;;;5017612;28;20016;-76
2022/05/02 02:23:15;;;;;;;;;;;8.60;99.90;;;;;;5017034;28;19956;-76
2022/05/02 02:25:41;;;;;;;;;;;8.60;99.90;;;;;;5013871;28;19921;-76
2022/05/02 02:28:07;;;;;;;;;;;8.60;99.90;;;;;;5011887;28;19913;-76
2022/05/02 02:30:32;;;;;;;;;;;8.60;99.90;;;;;;5013135;28;20424;-76
2022/05/02 02:32:59;;;;;;;;;;;8.50;99.90;;;;;;5012834;28;19968;-76
2022/05/02 02:35:25;;;;;;;;;;;8.40;99.90;;;;;;5014526;28;21222;-77
2022/05/02 02:37:50;;;;;;;;;;;8.20;99.90;;;;;;5015653;28;19915;-77
2022/05/02 02:40:16;;;;;;;;;;;8.10;99.90;;;;;;5016574;28;20394;-77
2022/05/02 02:42:41;;;;;;;;;;;8.10;99.90;;;;;;5017255;28;20700;-76
2022/05/02 02:45:08;;;;;;;;;;;8.20;99.90;;;;;;5018408;28;19911;-76
2022/05/02 02:47:33;;;;;;;;;;;8.20;99.90;;;;;;5018410;28;19960;-76
2022/05/02 02:49:59;;;;;;;;;;;8.20;99.90;;;;;;4998893;28;20034;-76
2022/05/02 02:52:24;;;;;;;;;;;8.30;99.90;;;;;;5014033;28;19921;-76
2022/05/02 02:54:50;;;;;;;;;;;8.50;99.90;;;;;;5015961;28;19920;-76
2022/05/02 02:57:15;;;;;;;;;;;8.70;99.90;;;;;;5014337;28;19920;-75
2022/05/02 02:59:41;;;;;;;;;;;8.90;99.90;;;;;;5014646;28;20281;-77
2022/05/02 03:02:07;;;;;;;;;;;9.00;99.90;;;;;;5016597;28;19920;-77
2022/05/02 03:07:17;;;;;;;;;;;9.00;99.90;;;;;;5013425;28;19919;-76
2022/05/02 03:09:42;;;;;;;;;;;9.00;99.90;;;;;;5019006;28;19909;-77
2022/05/02 03:12:08;;;;;;;;;;;9.00;99.90;;;;;;5018657;28;19925;-77
2022/05/02 03:14:34;;;;;;;;;;;9.00;99.90;;;;;;5017516;28;19913;-77
2022/05/02 03:16:59;;;;;;;;;;;9.00;99.90;;;;;;5016368;28;19924;-77
2022/05/02 03:19:26;;;;;;;;;;;9.20;99.90;;;;;;5015119;28;19924;-77
2022/05/02 03:21:52;;;;;;;;;;;9.30;99.90;;;;;;5016650;28;20453;-77
2022/05/02 03:24:17;;;;;;;;;;;9.30;99.90;;;;;;5019448;28;19999;-77
2022/05/02 03:26:43;;;;;;;;;;;9.30;99.90;;;;;;5017254;28;20651;-77
2022/05/02 03:29:08;;;;;;;;;;;9.10;99.90;;;;;;5018574;28;20461;-77
2022/05/02 03:31:34;;;;;;;;;;;9.10;99.90;;;;;;5029965;28;19917;-77
2022/05/02 03:33:59;;;;;;;;;;;9.10;99.90;;;;;;5025479;28;19924;-76
2022/05/02 03:36:25;;;;;;;;;;;9.20;99.90;;;;;;5009790;28;19913;-76
2022/05/02 03:38:50;;;;;;;;;;;9.00;99.90;;;;;;5028056;28;20527;-75
2022/05/02 03:41:16;;;;;;;;;;;9.00;99.90;;;;;;5031663;28;19967;-76
2022/05/02 03:43:42;;;;;;;;;;;9.00;99.90;;;;;;5027180;28;19984;-76
2022/05/02 03:46:08;;;;;;;;;;;9.10;99.90;;;;;;5028769;28;20408;-77
2022/05/02 03:48:33;;;;;;;;;;;9.20;99.90;;;;;;5025417;28;19973;-77
2022/05/02 03:50:59;;;;;;;;;;;9.20;99.90;;;;;;5028678;28;19959;-76
2022/05/02 03:53:25;;;;;;;;;;;9.30;99.90;;;;;;5026647;28;19921;-77
2022/05/02 03:55:50;;;;;;;;;;;9.40;99.90;;;;;;5027428;28;19971;-77
2022/05/02 03:58:16;;;;;;;;;;;9.40;99.90;;;;;;5026210;28;19913;-77
2022/05/02 04:00:41;;;;;;;;;;;9.50;99.90;;;;;;5025943;28;20023;-77
2022/05/02 04:03:07;;;;;;;;;;;9.50;99.90;;;;;;5024570;28;19913;-77
2022/05/02 04:05:32;;;;;;;;;;;9.60;99.90;;;;;;5020738;28;20366;-77
2022/05/02 04:07:58;;;;;;;;;;;9.60;99.90;;;;;;5019981;28;20298;-77
2022/05/02 04:10:23;;;;;;;;;;;9.70;99.90;;;;;;5013377;28;23806;-77
2022/05/02 04:12:49;;;;;;;;;;;9.70;99.90;;;;;;5018624;28;20324;-73
2022/05/02 04:15:14;;;;;;;;;;;9.70;99.90;;;;;;5018961;28;19925;-76
2022/05/02 04:17:40;;;;;;;;;;;9.80;99.90;;;;;;5018697;28;19928;-77
2022/05/02 04:20:06;;;;;;;;;;;9.80;99.90;;;;;;5019468;28;19925;-77
2022/05/02 04:22:32;;;;;;;;;;;9.70;99.90;;;;;;5020912;28;19909;-77
2022/05/02 04:24:57;;;;;;;;;;;9.70;99.90;;;;;;5022829;28;19913;-77
2022/05/02 04:27:23;;;;;;;;;;;9.80;99.90;;;;;;5019799;28;19964;-76
2022/05/02 04:29:48;;;;;;;;;;;9.80;99.90;;;;;;5018999;28;19952;-77
2022/05/02 04:32:14;;;;;;;;;;;9.90;99.90;;;;;;5011513;28;20015;-74
2022/05/02 04:34:39;;;;;;;;;;;10.10;99.90;;;;;;5017233;28;19920;-74
2022/05/02 04:37:07;;;;;;;;;;;10.30;99.90;;;;;;5016186;28;19936;-74
2022/05/02 04:39:33;;;;;;;;;;;10.30;99.90;;;;;;5021024;28;19921;-74
2022/05/02 04:41:58;;;;;;;;;;;10.40;99.90;;;;;;5020625;28;19917;-74
2022/05/02 04:44:23;;;;;;;;;;;10.50;99.90;;;;;;5018748;28;20422;-74
2022/05/02 04:46:49;;;;;;;;;;;10.50;99.90;;;;;;5020380;28;19916;-74
2022/05/02 04:49:15;;;;;;;;;;;10.50;99.90;;;;;;5015987;28;19909;-75
2022/05/02 04:51:40;;;;;;;;;;;10.50;99.90;;;;;;5021932;28;19996;-74
2022/05/02 04:54:06;;;;;;;;;;;10.40;99.90;;;;;;5020648;28;19920;-74
2022/05/02 04:56:31;;;;;;;;;;;10.50;99.90;;;;;;5017444;28;20460;-74
2022/05/02 04:58:57;;;;;;;;;;;10.50;99.90;;;;;;5021346;28;19948;-75
2022/05/02 05:01:22;;;;;;;;;;;10.50;99.90;;;;;;5020502;28;20278;-74
2022/05/02 05:03:48;;;;;;;;;;;10.50;99.90;;;;;;5017114;28;19999;-75
2022/05/02 05:06:13;;;;;;;;;;;10.50;99.90;;;;;;5019091;28;20004;-73
2022/05/02 05:08:39;;;;;;;;;;;10.70;99.90;;;;;;5018143;28;19916;-76
2022/05/02 05:11:09;;;;;;;;;;;10.80;99.90;;;;;;5017823;28;19917;-74
2022/05/02 05:13:40;;;;;;;;;;;10.90;99.90;;;;;;5013542;28;19924;-73
2022/05/02 05:16:34;;;;;;;;;;;10.90;99.90;;;;;;5019205;28;20362;-73
2022/05/02 05:19:19;;;;;;;;;;;11.10;99.90;;;;;;4994836;28;19909;-73
2022/05/02 05:21:58;;;;;;;;;;;11.30;99.90;;;;;;5020682;28;19916;-66
2022/05/02 05:24:53;;;;;;;;;;;11.40;99.90;;;;;;5015566;28;19919;-65
2022/05/02 05:27:27;;;;;;;;;;;11.50;99.90;;;;;;4940207;28;19924;-66
2022/05/02 05:30:03;;;;;;;;;;;11.70;99.90;;;;;;5019017;28;19916;-66
2022/05/02 05:32:37;;;;;;;;;;;11.80;99.90;;;;;;5017030;28;20032;-65
2022/05/02 05:35:07;;;;;;;;;;;12.00;99.90;;;;;;5019106;28;20577;-66
2022/05/02 05:37:47;;;;;;;;;;;12.00;99.90;;;;;;5017896;28;19921;-65
2022/05/02 05:40:29;;;;;;;;;;;12.10;99.90;;;;;;5013904;28;19955;-65
2022/05/02 05:43:22;;;;;;;;;;;12.30;99.90;;;;;;5013946;28;19963;-65
2022/05/02 05:45:52;;;;;;;;;;;12.50;99.90;;;;;;5019114;28;19916;-66
2022/05/02 05:48:28;;;;;;;;;;;12.70;99.90;;;;;;5014461;28;19913;-66
2022/05/02 05:51:02;;;;;;;;;;;12.80;99.80;;;;;;4995581;28;19972;-66
2022/05/02 05:53:28;;;;;;;;;;;12.90;99.90;;;;;;5014805;28;20481;-67
2022/05/02 05:56:04;;;;;;;;;;;13.10;99.90;;;;;;5016222;28;19913;-66
2022/05/02 05:58:45;;;;;;;;;;;13.30;99.20;;;;;;5010031;28;20035;-66
2022/05/02 06:01:13;;;;;;;;;;;13.40;98.80;;;;;;5009811;28;19916;-66
2022/05/02 06:03:59;;;;;;;;;;;13.60;98.40;;;;;;5013639;28;20306;-67
2022/05/02 06:06:26;;;;;;;;;;;13.80;97.20;;;;;;5014766;28;19909;-72
2022/05/02 06:08:52;;;;;;;;;;;14.00;96.30;;;;;;5017327;28;20216;-67
2022/05/02 06:11:19;;;;;;;;;;;14.20;96.90;;;;;;5017845;28;19925;-67
2022/05/02 06:13:45;;;;;;;;;;;14.40;95.70;;;;;;5016795;28;19917;-67
2022/05/02 06:18:57;;;;;;;;;;;14.70;94.20;;;;;;5018337;28;20317;-66
2022/05/02 06:21:23;;;;;;;;;;;14.90;94.10;;;;;;5022662;28;20369;-67
2022/05/02 06:23:52;;;;;;;;;;;15.00;93.50;;;;;;5013031;28;19916;-65
2022/05/02 06:26:21;;;;;;;;;;;15.20;92.00;;;;;;5019917;28;19916;-66
2022/05/02 06:28:48;;;;;;;;;;;15.40;90.30;;;;;;5015708;28;19909;-65
2022/05/02 06:31:24;;;;;;;;;;;15.50;90.90;;;;;;5013552;28;19964;-66
2022/05/02 06:33:50;;;;;;;;;;;15.60;90.80;;;;;;5016604;28;19947;-65
2022/05/02 06:36:15;;;;;;;;;;;15.70;89.50;;;;;;5016808;28;19912;-66
2022/05/02 06:38:50;;;;;;;;;;;15.80;88.80;;;;;;5021350;28;19913;-66
2022/05/02 06:41:25;;;;;;;;;;;15.90;88.40;;;;;;5017053;28;20330;-66
2022/05/02 06:43:50;;;;;;;;;;;16.00;89.50;;;;;;5014586;28;19935;-65
2022/05/02 06:46:19;;;;;;;;;;;16.10;87.60;;;;;;5022747;28;19913;-65
2022/05/02 06:48:49;;;;;;;;;;;16.10;86.00;;;;;;5019653;28;20003;-65
2022/05/02 06:51:19;;;;;;;;;;;16.20;87.30;;;;;;5012049;28;19920;-65
2022/05/02 06:53:45;;;;;;;;;;;16.30;87.20;;;;;;5017991;28;19916;-65
2022/05/02 06:56:16;;;;;;;;;;;16.30;90.00;;;;;;5021126;28;20290;-65
2022/05/02 06:58:41;;;;;;;;;;;16.30;87.70;;;;;;5018174;28;20003;-65
2022/05/02 07:01:07;;;;;;;;;;;16.40;88.60;;;;;;5017191;28;19915;-66
2022/05/02 07:03:49;;;;;;;;;;;16.40;87.90;;;;;;5016276;28;19948;-66
2022/05/02 07:06:33;;;;;;;;;;;16.50;88.20;;;;;;5011185;28;19927;-66
2022/05/02 07:09:04;;;;;;;;;;;16.60;84.50;;;;;;5011375;28;19921;-66
2022/05/02 07:11:39;;;;;;;;;;;16.70;85.20;;;;;;5013856;28;19925;-66
2022/05/02 07:14:16;;;;;;;;;;;16.70;86.10;;;;;;5009137;28;19913;-67
2022/05/02 07:16:47;;;;;;;;;;;16.80;86.40;;;;;;4999012;28;19917;-67
2022/05/02 07:19:19;;;;;;;;;;;17.00;83.80;;;;;;5020222;28;19916;-66
2022/05/02 07:22:06;;;;;;;;;;;17.10;83.70;;;;;;5019075;28;19909;-67
2022/05/02 07:24:32;;;;;;;;;;;17.40;82.30;;;;;;5006635;28;20160;-67
2022/05/02 07:27:15;;;;;;;;;;;17.50;78.60;;;;;;5011149;28;20483;-67
2022/05/02 07:29:42;;;;;;;;;;;17.40;79.20;;;;;;5013484;28;20492;-67
2022/05/02 07:32:09;;;;;;;;;;;17.50;79.60;;;;;;5011943;28;19917;-66
2022/05/02 07:34:36;;;;;;;;;;;17.60;80.00;;;;;;5017291;28;20413;-67
2022/05/02 07:37:01;;;;;;;;;;;17.60;76.90;;;;;;5012111;28;19917;-65
2022/05/02 07:39:30;;;;;;;;;;;17.60;75.60;;;;;;5014756;28;19954;-66
2022/05/02 07:41:58;;;;;;;;;;;17.60;77.90;;;;;;5010561;28;19960;-66
2022/05/02 07:44:28;;;;;;;;;;;17.70;78.00;;;;;;5015970;28;19909;-68
2022/05/02 07:46:55;;;;;;;;;;;17.80;78.50;;;;;;5005746;28;19917;-68
2022/05/02 07:49:22;;;;;;;;;;;17.90;76.80;;;;;;5009466;28;20024;-68
2022/05/02 07:51:50;;;;;;;;;;;18.00;76.30;;;;;;5015462;28;20740;-68
2022/05/02 07:54:18;;;;;;;;;;;18.10;75.70;;;;;;5017499;28;19921;-68
2022/05/02 07:56:46;;;;;;;;;;;18.10;74.60;;;;;;5023523;28;19909;-68
2022/05/02 07:59:12;;;;;;;;;;;18.20;74.50;;;;;;5022810;28;19912;-68
2022/05/02 08:01:38;;;;;;;;;;;18.20;74.30;;;;;;5020117;28;19913;-68
2022/05/02 08:04:04;;;;;;;;;;;18.30;76.30;;;;;;5022464;28;19916;-68
2022/05/02 08:06:35;;;;;;;;;;;18.40;74.60;;;;;;5021309;28;19921;-69
2022/05/02 08:09:00;;;;;;;;;;;18.50;74.80;;;;;;5021033;28;19913;-68
2022/05/02 08:11:39;;;;;;;;;;;18.50;71.50;;;;;;5015290;28;20393;-68
2022/05/02 08:14:07;;;;;;;;;;;18.60;71.90;;;;;;5012540;28;20433;-68
2022/05/02 08:16:40;;;;;;;;;;;18.80;70.40;;;;;;5013771;28;19917;-68
2022/05/02 08:19:24;;;;;;;;;;;19.00;69.50;;;;;;5016090;28;19924;-68
2022/05/02 08:27:59;;;;;;;;;;;19.40;69.60;;;;;;5019526;28;19915;-69
2022/05/02 08:30:25;;;;;;;;;;;19.50;68.30;;;;;;5021576;28;19959;-68
2022/05/02 08:32:56;;;;;;;;;;;19.60;69.70;;;;;;5018856;28;20314;-68
2022/05/02 08:35:30;;;;;;;;;;;19.60;66.20;;;;;;5011938;28;19948;-69
2022/05/02 08:38:07;;;;;;;;;;;19.50;65.10;;;;;;5016508;28;19913;-67
2022/05/02 08:40:41;;;;;;;;;;;19.50;65.20;;;;;;5016005;28;19908;-68
2022/05/02 08:43:07;;;;;;;;;;;19.40;66.40;;;;;;5020726;28;19920;-69
2022/05/02 08:45:41;;;;;;;;;;;19.50;68.80;;;;;;5017858;28;19909;-69
2022/05/02 08:48:26;;;;;;;;;;;19.70;66.90;;;;;;5020478;28;19916;-69
2022/05/02 08:50:57;;;;;;;;;;;19.70;64.90;;;;;;5021886;28;19921;-69
2022/05/02 08:53:25;;;;;;;;;;;19.70;68.20;;;;;;5018587;28;19921;-69
2022/05/02 08:56:06;;;;;;;;;;;19.70;65.90;;;;;;5015246;28;19942;-68
2022/05/02 08:58:50;;;;;;;;;;;19.80;64.90;;;;;;5022207;28;20362;-69
2022/05/02 09:01:29;;;;;;;;;;;19.70;65.90;;;;;;5021939;28;19917;-69
2022/05/02 09:03:55;;;;;;;;;;;19.60;64.60;;;;;;5011363;28;19921;-69
2022/05/02 09:06:40;;;;;;;;;;;19.60;64.70;;;;;;5021979;28;19982;-69
2022/05/02 09:09:08;;;;;;;;;;;19.70;64.30;;;;;;5019798;28;20270;-68
2022/05/02 09:11:39;;;;;;;;;;;19.80;64.40;;;;;;5016226;28;19940;-68
2022/05/02 09:14:08;;;;;;;;;;;19.80;62.50;;;;;;5020508;28;19913;-69
2022/05/02 09:16:56;;;;;;;;;;;19.80;62.70;;;;;;5019954;28;19972;-68
2022/05/02 09:19:24;;;;;;;;;;;19.80;64.00;;;;;;5017441;28;19913;-68
2022/05/02 09:22:09;;;;;;;;;;;19.90;63.60;;;;;;5010529;28;19913;-68
2022/05/02 09:24:49;;;;;;;;;;;20.00;64.30;;;;;;5016673;28;19987;-68
2022/05/02 09:27:14;;;;;;;;;;;20.10;64.60;;;;;;5014903;28;19928;-69
2022/05/02 09:29:46;;;;;;;;;;;20.30;63.60;;;;;;5020962;28;20443;-68
2022/05/02 09:32:18;;;;;;;;;;;20.40;62.10;;;;;;5016731;28;19928;-68
2022/05/02 09:34:53;;;;;;;;;;;20.40;61.80;;;;;;5013302;28;20378;-68
2022/05/02 09:37:35;;;;;;;;;;;20.40;62.80;;;;;;5017313;28;19925;-68
2022/05/02 09:40:12;;;;;;;;;;;20.50;63.70;;;;;;5017021;28;20366;-68
2022/05/02 09:42:37;;;;;;;;;;;20.60;62.60;;;;;;5009863;28;20067;-68
2022/05/02 09:50:47;;;;;;;;;;;20.50;57.60;;;;;;5013315;28;19920;-68
2022/05/02 09:53:31;;;;;;;;;;;20.50;59.30;;;;;;5013766;28;19917;-69
2022/05/02 09:58:52;;;;;;;;;;;20.90;60.90;;;;;;5015922;28;19939;-68
2022/05/02 10:01:22;;;;;;;;;;;21.10;61.30;;;;;;5018432;28;19960;-68
2022/05/02 10:04:08;;;;;;;;;;;21.20;59.70;;;;;;5009929;28;19993;-68
2022/05/02 10:06:34;;;;;;;;;;;21.30;61.90;;;;;;5016397;28;19913;-69
2022/05/02 10:09:18;;;;;;;;;;;21.40;61.10;;;;;;5017989;28;19905;-69
2022/05/02 10:11:53;;;;;;;;;;;21.40;58.00;;;;;;5014726;28;20551;-68
2022/05/02 10:14:29;;;;;;;;;;;21.30;55.30;;;;;;5014195;28;19905;-68
2022/05/02 10:17:06;;;;;;;;;;;21.10;55.80;;;;;;5013627;28;19948;-69
2022/05/02 10:19:37;;;;;;;;;;;20.90;57.50;;;;;;5014449;28;20324;-69
2022/05/02 10:22:03;;;;;;;;;;;20.90;56.30;;;;;;5017539;28;19924;-69
2022/05/02 10:24:42;;;;;;;;;;;20.90;57.20;;;;;;5016675;28;19916;-68
2022/05/02 10:27:28;;;;;;;;;;;21.00;56.70;;;;;;5019473;28;19963;-69
2022/05/02 10:30:07;;;;;;;;;;;21.10;56.70;;;;;;4992732;28;19916;-69
2022/05/02 10:32:45;;;;;;;;;;;21.20;54.50;;;;;;5015118;28;20265;-69
2022/05/02 10:35:14;;;;;;;;;;;21.10;54.20;;;;;;5014211;28;20340;-69
2022/05/02 10:37:42;;;;;;;;;;;21.20;54.00;;;;;;5017212;28;19940;-69
2022/05/02 10:40:12;;;;;;;;;;;21.30;54.00;;;;;;5015935;28;20490;-68
2022/05/02 10:42:43;;;;;;;;;;;21.30;50.30;;;;;;5011695;28;20444;-68
2022/05/02 10:45:09;;;;;;;;;;;21.10;50.70;;;;;;5017598;28;19913;-69
2022/05/02 10:47:47;;;;;;;;;;;21.10;50.70;;;;;;5012132;28;19908;-68
2022/05/02 10:50:19;;;;;;;;;;;21.10;52.10;;;;;;5013937;28;20337;-69
2022/05/02 10:52:47;;;;;;;;;;;21.20;51.10;;;;;;5009718;28;20087;-69
2022/05/02 10:55:20;;;;;;;;;;;21.20;50.00;;;;;;5015880;28;19917;-69
2022/05/02 10:57:50;;;;;;;;;;;21.20;51.70;;;;;;5016677;28;20250;-68
2022/05/02 11:00:15;;;;;;;;;;;21.10;51.70;;;;;;5019998;28;19975;-69
2022/05/02 11:02:59;;;;;;;;;;;21.10;50.80;;;;;;5005456;28;19917;-69
2022/05/02 11:05:31;;;;;;;;;;;21.20;52.30;;;;;;5017035;28;19920;-69
2022/05/02 11:08:03;;;;;;;;;;;21.30;50.50;;;;;;5018115;28;19920;-69
2022/05/02 11:10:30;;;;;;;;;;;21.20;50.80;;;;;;5018625;28;19917;-69
2022/05/02 11:12:58;;;;;;;;;;;21.10;51.60;;;;;;5018439;28;19914;-69
2022/05/02 11:15:25;;;;;;;;;;;21.00;51.70;;;;;;5019496;28;20101;-69
2022/05/02 11:17:56;;;;;;;;;;;21.00;51.40;;;;;;5021132;28;20313;-69
2022/05/02 11:20:42;;;;;;;;;;;20.90;52.10;;;;;;5017974;28;19913;-69
2022/05/02 11:23:24;;;;;;;;;;;20.90;52.10;;;;;;5016378;28;19964;-69
2022/05/02 11:25:54;;;;;;;;;;;20.90;51.90;;;;;;5012482;28;19956;-69
2022/05/02 11:28:32;;;;;;;;;;;20.90;52.60;;;;;;5023351;28;19991;-69
2022/05/02 11:31:12;;;;;;;;;;;20.90;53.20;;;;;;5026774;28;20004;-69
2022/05/02 11:33:42;;;;;;;;;;;20.90;54.60;;;;;;5025166;28;19909;-69
2022/05/02 11:36:10;;;;;;;;;;;20.90;54.30;;;;;;5028526;28;19996;-69
2022/05/02 11:38:38;;;;;;;;;;;20.90;54.30;;;;;;5021891;28;19932;-69
2022/05/02 11:41:17;;;;;;;;;;;20.80;55.50;;;;;;5018737;28;19963;-69
2022/05/02 11:43:44;;;;;;;;;;;20.70;53.70;;;;;;5022168;28;19921;-69
2022/05/02 11:46:22;;;;;;;;;;;20.70;55.70;;;;;;5019536;28;19921;-69
2022/05/02 11:49:00;;;;;;;;;;;20.70;56.90;;;;;;5021889;28;19921;-69
2022/05/02 11:51:43;;;;;;;;;;;20.60;57.20;;;;;;5024440;28;20490;-69
2022/05/02 11:54:17;;;;;;;;;;;20.60;56.80;;;;;;5021743;28;19917;-69
2022/05/02 11:56:54;;;;;;;;;;;20.60;60.40;;;;;;5021404;28;19926;-69
2022/05/02 11:59:21;;;;;;;;;;;20.60;57.90;;;;;;5022408;28;20767;-69
2022/05/02 12:01:49;;;;;;;;;;;20.60;55.10;;;;;;5016965;28;19913;-69
2022/05/02 12:04:20;;;;;;;;;;;20.60;56.10;;;;;;5022421;28;19921;-69
2022/05/02 12:06:58;;;;;;;;;;;20.60;54.80;;;;;;5017368;28;19982;-69
2022/05/02 12:09:24;;;;;;;;;;;20.70;56.90;;;;;;5018337;28;20031;-69
2022/05/02 12:11:53;;;;;;;;;;;20.70;55.80;;;;;;5023320;28;20000;-69
2022/05/02 12:14:21;;;;;;;;;;;20.70;55.60;;;;;;5023383;28;19913;-69
2022/05/02 12:17:06;;;;;;;;;;;20.70;54.70;;;;;;5005427;28;19921;-69
2022/05/02 12:19:33;;;;;;;;;;;20.70;53.50;;;;;;5021053;28;19927;-69
2022/05/02 12:22:00;;;;;;;;;;;20.80;53.80;;;;;;5022351;28;19943;-69
2022/05/02 12:24:26;;;;;;;;;;;20.90;52.40;;;;;;5021297;28;19909;-69
2022/05/02 12:26:52;;;;;;;;;;;20.90;52.10;;;;;;5023492;28;19975;-69
2022/05/02 12:29:19;;;;;;;;;;;21.00;52.20;;;;;;5021669;28;19917;-75
2022/05/02 12:31:53;;;;;;;;;;;21.10;53.90;;;;;;5020377;28;19913;-76
2022/05/02 12:34:20;;;;;;;;;;;21.20;54.60;;;;;;5018775;28;20339;-76
2022/05/02 12:36:48;;;;;;;;;;;21.20;53.80;;;;;;5020464;28;19971;-75
2022/05/02 12:39:28;;;;;;;;;;;21.20;51.70;;;;;;5024639;28;20600;-76
2022/05/02 12:42:17;;;;;;;;;;;21.10;51.20;;;;;;5015725;28;19921;-73
2022/05/02 12:44:44;;;;;;;;;;;21.10;51.60;;;;;;5014743;28;19917;-76
2022/05/02 12:47:16;;;;;;;;;;;21.10;52.90;;;;;;5015984;28;19913;-75
2022/05/02 12:49:52;;;;;;;;;;;21.00;52.90;;;;;;5017301;28;19916;-75
2022/05/02 12:52:18;;;;;;;;;;;21.00;52.30;;;;;;5018703;28;19987;-76
2022/05/02 12:54:48;;;;;;;;;;;20.90;51.80;;;;;;5016077;28;19966;-76
2022/05/02 13:02:43;;;;;;;;;;;21.10;50.00;;;;;;5019066;28;20624;-76
2022/05/02 13:05:15;;;;;;;;;;;21.10;50.10;;;;;;5018627;28;20277;-75
2022/05/02 13:07:44;;;;;;;;;;;21.20;50.30;;;;;;5018111;28;20000;-76
2022/05/02 13:10:23;;;;;;;;;;;21.50;51.80;;;;;;5015859;28;19911;-75
2022/05/02 13:13:01;;;;;;;;;;;21.70;49.80;;;;;;5021193;28;19924;-75
2022/05/02 13:15:27;;;;;;;;;;;21.80;49.50;;;;;;5012690;28;20325;-76
2022/05/02 13:18:03;;;;;;;;;;;21.80;49.10;;;;;;5012117;28;19937;-74
2022/05/02 13:20:29;;;;;;;;;;;21.80;47.60;;;;;;5018819;28;19941;-75
2022/05/02 13:23:10;;;;;;;;;;;21.70;48.50;;;;;;5018369;28;19921;-76
2022/05/02 13:25:46;;;;;;;;;;;21.60;48.90;;;;;;5016528;28;19909;-76
2022/05/02 13:28:16;;;;;;;;;;;21.40;50.10;;;;;;5022094;28;20672;-75
2022/05/02 13:30:48;;;;;;;;;;;21.10;49.70;;;;;;5014999;28;19959;-75
2022/05/02 13:33:16;;;;;;;;;;;20.90;50.20;;;;;;5014409;28;19988;-75
2022/05/02 13:35:42;;;;;;;;;;;20.50;51.20;;;;;;5017917;28;19909;-76
2022/05/02 13:38:14;;;;;;;;;;;20.30;50.80;;;;;;5003275;28;20318;-76
2022/05/02 13:41:06;;;;;;;;;;;20.10;48.70;;;;;;5017651;28;19917;-75
2022/05/02 13:43:34;;;;;;;;;;;20.00;49.30;;;;;;5016022;28;19918;-76
2022/05/02 13:46:00;;;;;;;;;;;19.90;51.20;;;;;;5015880;28;19916;-76
2022/05/02 13:48:30;;;;;;;;;;;19.80;52.30;;;;;;5017237;28;19913;-76
2022/05/02 13:51:02;;;;;;;;;;;19.60;52.70;;;;;;5017294;28;20450;-74
2022/05/02 13:53:34;;;;;;;;;;;19.40;55.60;;;;;;5018928;28;19932;-75
2022/05/02 13:56:07;;;;;;;;;;;19.10;54.90;;;;;;5017508;28;19909;-76
2022/05/02 13:58:44;;;;;;;;;;;18.80;53.50;;;;;;5015068;28;19936;-76
2022/05/02 14:01:26;;;;;;;;;;;18.80;58.60;;;;;;5022408;28;19909;-77
2022/05/02 14:04:35;;;;;;;;;;;18.70;57.80;;;;;;5009090;28;19925;-75
2022/05/02 14:09:39;;;;;;;;;;;19.30;49.70;;;;;;5020172;28;19963;-76
2022/05/02 14:12:06;;;;;;;;;;;19.50;51.70;;;;;;5017388;28;19913;-76
2022/05/02 14:14:32;;;;;;;;;;;19.70;51.80;;;;;;5018667;28;20381;-76
2022/05/02 14:16:58;;;;;;;;;;;19.80;50.20;;;;;;5019151;28;19917;-76
2022/05/02 14:19:25;;;;;;;;;;;19.90;50.50;;;;;;5012465;28;19992;-77
2022/05/02 14:21:51;;;;;;;;;;;20.00;54.50;;;;;;5013697;28;19978;-76
2022/05/02 14:24:17;;;;;;;;;;;20.10;54.50;;;;;;4995730;28;21292;-76
2022/05/02 14:26:54;;;;;;;;;;;20.20;54.80;;;;;;5016665;28;19944;-76
2022/05/02 14:29:20;;;;;;;;;;;20.20;53.40;;;;;;5015846;28;19921;-70
2022/05/02 14:31:46;;;;;;;;;;;20.30;53.20;;;;;;5014528;28;19944;-77
2022/05/02 14:34:12;;;;;;;;;;;20.50;54.80;;;;;;5013937;28;19924;-76
2022/05/02 14:36:40;;;;;;;;;;;20.50;53.00;;;;;;5012363;28;20027;-78
2022/05/02 14:39:06;;;;;;;;;;;20.50;51.90;;;;;;5008676;28;19938;-82
2022/05/02 14:41:35;;;;;;;;;;;20.40;51.90;;;;;;5013870;28;19916;-82
2022/05/02 14:44:01;;;;;;;;;;;20.20;51.70;;;;;;5011514;28;19917;-82
2022/05/02 14:46:28;;;;;;;;;;;20.10;52.00;;;;;;5003730;28;19929;-81
2022/05/02 14:48:53;;;;;;;;;;;20.10;54.20;;;;;;5013048;28;20554;-81
2022/05/02 14:51:25;;;;;;;;;;;20.10;54.20;;;;;;5011289;28;19917;-80
2022/05/02 14:53:55;;;;;;;;;;;20.00;53.00;;;;;;5015006;28;20340;-81
2022/05/02 14:56:21;;;;;;;;;;;19.90;52.70;;;;;;5015236;28;20063;-80
2022/05/02 14:58:47;;;;;;;;;;;19.80;53.70;;;;;;5015814;28;19925;-83
2022/05/02 15:01:15;;;;;;;;;;;19.80;54.20;;;;;;5013802;28;19924;-81
2022/05/02 15:03:41;;;;;;;;;;;19.70;54.20;;;;;;5016741;28;19968;-82
2022/05/02 15:06:07;;;;;;;;;;;19.60;52.90;;;;;;5017926;28;19916;-79